createdAt,value
2022-10-02T00:00:00.181Z,12.5
2022-10-02T00:05:00.205Z,12.4
2022-10-02T00:10:00.202Z,12.4
2022-10-02T00:15:00.190Z,12.4
2022-10-02T00:20:00.163Z,12.3
2022-10-02T00:25:00.185Z,12.3
2022-10-02T00:30:00.178Z,12.2
2022-10-02T00:35:00.200Z,12.2
2022-10-02T00:40:00.180Z,12.2
2022-10-02T00:45:00.197Z,12.2
2022-10-02T00:50:00.192Z,12.2
2022-10-02T00:55:00.198Z,12.3
2022-10-02T01:00:00.169Z,12.3
2022-10-02T01:05:00.297Z,12.3
2022-10-02T01:10:00.181Z,12.3
2022-10-02T01:15:00.209Z,12.2
2022-10-02T01:20:00.169Z,12.2
2022-10-02T01:25:00.188Z,12.1
2022-10-02T01:30:00.188Z,12.1
2022-10-02T01:35:00.194Z,12.1
2022-10-02T01:40:00.200Z,12.2
2022-10-02T01:45:00.355Z,12.3
2022-10-02T01:50:00.202Z,12.4
2022-10-02T01:55:00.194Z,12.4
2022-10-02T02:00:00.166Z,12.4
2022-10-02T02:05:00.213Z,12.4
2022-10-02T02:10:00.179Z,12.3
2022-10-02T02:15:00.168Z,12.4
2022-10-02T02:20:00.238Z,12.4
2022-10-02T02:25:00.231Z,12.3
2022-10-02T02:30:00.178Z,12.3
2022-10-02T02:35:00.227Z,12.4
2022-10-02T02:40:00.159Z,12.4
2022-10-02T02:45:00.198Z,12.4
2022-10-02T02:50:00.207Z,12.4
2022-10-02T02:55:00.179Z,12.4
2022-10-02T03:00:00.209Z,12.3
2022-10-02T03:05:00.239Z,12.3
2022-10-02T03:10:00.161Z,12.3
2022-10-02T03:15:00.203Z,12.3
2022-10-02T03:20:00.209Z,12.3
2022-10-02T03:25:00.343Z,12.4
2022-10-02T03:30:00.169Z,12.4
2022-10-02T03:35:00.192Z,12.3
2022-10-02T03:40:00.233Z,12.3
2022-10-02T03:45:00.206Z,12.2
2022-10-02T03:50:00.213Z,12.2
2022-10-02T03:55:00.210Z,12.2
2022-10-02T04:00:00.376Z,12.1
2022-10-02T04:05:00.153Z,12.0
2022-10-02T04:10:00.207Z,12.0
2022-10-02T04:15:00.354Z,12.0
2022-10-02T04:20:00.163Z,12.0
2022-10-02T04:25:00.178Z,12.0
2022-10-02T04:30:00.356Z,11.9
2022-10-02T04:35:00.167Z,11.9
2022-10-02T04:40:00.172Z,11.9
2022-10-02T04:45:00.186Z,11.9
2022-10-02T04:50:00.206Z,11.9
2022-10-02T04:55:00.163Z,11.8
2022-10-02T05:00:00.195Z,11.8
2022-10-02T05:05:00.191Z,11.8
2022-10-02T05:10:00.198Z,11.7
2022-10-02T05:15:00.165Z,11.7
2022-10-02T05:20:00.223Z,11.7
2022-10-02T05:25:00.334Z,11.8
2022-10-02T05:30:00.167Z,11.7
2022-10-02T05:35:00.344Z,11.7
2022-10-02T05:40:00.187Z,11.7
2022-10-02T05:45:00.365Z,11.7
2022-10-02T05:50:00.227Z,11.7
2022-10-02T05:55:00.214Z,11.7
2022-10-02T06:00:00.160Z,11.7
2022-10-02T06:05:00.201Z,11.7
2022-10-02T06:10:00.160Z,11.8
2022-10-02T06:15:00.380Z,11.8
2022-10-02T06:20:03.306Z,11.9
2022-10-02T06:25:00.357Z,11.9
2022-10-02T06:30:00.162Z,11.9
2022-10-02T06:35:00.181Z,12.0
2022-10-02T06:40:00.174Z,12.1
2022-10-02T06:50:00.211Z,12.2
2022-10-02T06:55:00.163Z,12.2
2022-10-02T07:00:00.213Z,12.2
2022-10-02T07:05:00.196Z,12.2
2022-10-02T07:10:00.209Z,12.2
2022-10-02T07:15:00.162Z,12.2
2022-10-02T07:20:00.193Z,12.3
2022-10-02T07:25:00.165Z,12.4
2022-10-02T07:30:00.240Z,12.6
2022-10-02T07:35:00.197Z,12.7
2022-10-02T07:40:00.201Z,12.7
2022-10-02T07:45:00.184Z,12.7
2022-10-02T07:50:00.220Z,12.6
2022-10-02T07:55:00.185Z,12.6
2022-10-02T08:00:00.178Z,12.6
2022-10-02T08:05:00.215Z,12.7
2022-10-02T08:10:00.172Z,12.7
2022-10-02T08:15:00.208Z,12.7
2022-10-02T08:20:00.215Z,13.1
2022-10-02T08:25:00.181Z,13.8
2022-10-02T08:30:00.186Z,14.5
2022-10-02T08:35:00.193Z,14.7
2022-10-02T08:40:00.189Z,14.7
2022-10-02T10:20:00.224Z,15.2
2022-10-02T10:25:00.161Z,15.6
2022-10-02T10:30:00.382Z,15.8
2022-10-02T10:35:00.167Z,16.0
2022-10-02T10:40:00.248Z,16.3
2022-10-02T10:45:00.195Z,16.6
2022-10-02T10:50:00.196Z,17.0
2022-10-02T10:55:00.157Z,17.2
2022-10-02T11:00:00.211Z,17.3
2022-10-02T11:45:00.195Z,17.7
2022-10-02T11:50:00.210Z,17.5
2022-10-02T11:55:00.204Z,17.3
2022-10-02T12:00:00.207Z,17.3
2022-10-02T12:05:00.178Z,17.4
2022-10-02T12:10:00.211Z,17.4
2022-10-02T12:15:00.181Z,17.5
2022-10-02T12:20:00.182Z,17.6
2022-10-02T12:25:00.172Z,17.6
2022-10-02T12:55:00.145Z,17.6
2022-10-02T13:00:00.203Z,17.5
2022-10-02T13:05:00.181Z,17.7
2022-10-02T13:10:00.185Z,17.7
2022-10-02T13:15:00.278Z,17.9
2022-10-02T13:20:00.200Z,18.2
2022-10-02T13:25:00.185Z,18.3
2022-10-02T13:30:00.164Z,18.4
2022-10-02T13:35:00.185Z,18.5
2022-10-02T13:40:00.211Z,18.6
2022-10-02T13:45:00.193Z,18.6
2022-10-02T13:50:00.233Z,18.7
2022-10-02T13:55:00.233Z,18.7
2022-10-02T14:00:00.181Z,18.7
2022-10-02T14:05:00.224Z,18.6
2022-10-02T14:10:00.194Z,18.5
2022-10-02T14:15:00.204Z,18.4
2022-10-02T14:20:00.163Z,18.4
2022-10-02T14:25:00.263Z,18.4
2022-10-02T14:30:00.182Z,18.4
2022-10-02T14:35:00.202Z,18.3
2022-10-02T14:45:00.210Z,18.0
2022-10-02T14:50:00.225Z,18.0
2022-10-02T14:55:00.206Z,17.9
2022-10-02T15:00:00.240Z,17.7
2022-10-02T15:05:04.197Z,17.6
2022-10-02T15:10:00.190Z,17.5
2022-10-02T15:15:00.230Z,17.4
2022-10-02T15:20:00.191Z,17.4
2022-10-02T15:25:00.187Z,17.4
2022-10-02T15:30:00.212Z,17.4
2022-10-02T15:35:00.185Z,17.3
2022-10-02T15:40:00.200Z,17.3
2022-10-02T15:45:00.180Z,17.4
2022-10-02T15:50:00.199Z,17.3
2022-10-02T15:55:00.174Z,17.1
2022-10-02T16:00:00.242Z,17.0
2022-10-02T16:05:00.267Z,16.9
2022-10-02T16:10:00.263Z,16.7
2022-10-02T16:15:00.173Z,16.7
2022-10-02T16:20:00.334Z,16.6
2022-10-02T16:25:00.148Z,16.5
2022-10-02T16:30:00.284Z,16.5
2022-10-02T16:35:00.196Z,16.4
2022-10-02T16:40:00.241Z,16.4
2022-10-02T16:45:00.186Z,16.3
2022-10-02T16:50:00.402Z,16.2
2022-10-02T16:55:00.196Z,16.1
2022-10-02T17:00:00.181Z,16.0
2022-10-02T17:05:00.249Z,15.9
2022-10-02T17:10:00.177Z,15.9
2022-10-02T17:15:00.226Z,15.8
2022-10-02T17:20:00.304Z,15.8
2022-10-02T17:25:00.160Z,15.8
2022-10-02T17:30:00.208Z,15.7
2022-10-02T17:35:00.176Z,15.6
2022-10-02T17:40:00.176Z,15.5
2022-10-02T17:45:00.166Z,15.4
2022-10-02T17:50:00.428Z,15.4
2022-10-02T17:55:00.193Z,15.4
2022-10-02T18:00:03.652Z,15.3
2022-10-02T18:05:00.252Z,15.2
2022-10-02T18:10:00.166Z,15.1
2022-10-02T18:15:00.184Z,15.0
2022-10-02T18:20:00.474Z,15.1
2022-10-02T18:25:00.165Z,15.3
2022-10-02T18:30:00.196Z,15.3
2022-10-02T18:35:00.177Z,15.1
2022-10-02T18:40:06.165Z,14.9
2022-10-02T18:45:00.205Z,14.7
2022-10-02T18:50:00.233Z,14.6
2022-10-02T18:55:00.376Z,14.5
2022-10-02T19:00:00.193Z,14.4
2022-10-02T19:05:00.185Z,14.2
2022-10-02T19:10:00.184Z,14.2
2022-10-02T19:15:00.192Z,14.1
2022-10-02T19:20:00.219Z,14.0
2022-10-02T19:25:00.159Z,14.0
2022-10-02T19:30:00.209Z,14.0
2022-10-02T19:35:00.179Z,14.1
2022-10-02T19:40:00.152Z,14.1
2022-10-02T19:45:00.181Z,14.1
2022-10-02T19:50:00.526Z,14.0
2022-10-02T19:55:00.202Z,14.0
2022-10-02T20:00:00.207Z,13.9
2022-10-02T20:05:00.172Z,13.9
2022-10-02T20:10:00.194Z,13.8
2022-10-02T20:15:00.151Z,13.8
2022-10-02T20:20:02.713Z,13.7
2022-10-02T20:25:00.220Z,13.7
2022-10-02T20:30:00.188Z,13.8
2022-10-02T20:35:00.167Z,13.8
2022-10-02T20:40:02.587Z,13.6
2022-10-02T20:45:00.356Z,13.6
2022-10-02T20:50:00.172Z,13.5
2022-10-02T20:55:00.215Z,13.5
2022-10-02T21:00:00.164Z,13.4
2022-10-02T21:05:00.187Z,13.4
2022-10-02T21:10:00.191Z,13.3
2022-10-02T21:15:00.354Z,13.5
2022-10-02T21:20:00.154Z,13.9
2022-10-02T21:25:00.209Z,13.9
2022-10-02T21:30:00.173Z,13.7
2022-10-02T21:35:00.214Z,13.4
2022-10-02T21:40:00.188Z,13.2
2022-10-02T21:45:03.389Z,13.2
2022-10-02T21:50:00.181Z,13.2
2022-10-02T21:55:00.174Z,13.2
2022-10-02T22:00:00.238Z,13.2
2022-10-02T22:05:00.152Z,13.2
2022-10-02T22:10:00.184Z,13.2
2022-10-02T22:15:00.195Z,13.2
2022-10-02T22:20:00.155Z,13.1
2022-10-02T22:25:00.204Z,13.1
2022-10-02T22:30:00.166Z,13.1
2022-10-02T22:35:00.196Z,13.1
2022-10-02T22:40:00.195Z,13.1
2022-10-02T22:45:00.174Z,13.1
2022-10-02T22:50:00.192Z,13.1
2022-10-02T22:55:00.350Z,13.0
2022-10-02T23:00:00.195Z,13.0
2022-10-02T23:05:00.177Z,13.0
2022-10-02T23:10:00.362Z,12.9
2022-10-02T23:15:00.164Z,12.8
2022-10-02T23:20:00.179Z,12.8
2022-10-02T23:25:00.183Z,12.8
2022-10-02T23:30:00.195Z,12.6
2022-10-02T23:35:00.153Z,12.6
2022-10-02T23:40:00.234Z,12.6
2022-10-02T23:45:00.161Z,12.6
2022-10-02T23:50:00.198Z,12.6
2022-10-02T23:55:00.212Z,12.6
